NWS Home NWS Lubbock West Texas Mesonet Day over Day changes as of 0319 PM, Tue Sep 18, 2018

Latest   N   C   S   Daily Sum   3hrΔ   24hrΔ   Soil Data 
Site Map   24hr Precip   72hr Precip   Google Plot


Station Time of Last Temp Today Temp Yesterday Delta-T Dewpoint Today Dewpoint Yesterday Delta-Td Delta-Pressure (mB)
Reese Center  03:15 PM 81.3 80.9 0.4 62.3 61.6 0.8 -1.2
Abernathy  03:15 PM 82.8 82.5 0.3 63.7 62.8 0.9 -1.1
Plainview  03:15 PM 81.4 85.1 -3.7 64.1 63 1.1 -0.9
Tahoka  03:15 PM 83.2 82 1.2 65 64 1 -1.4
Slaton  03:15 PM 84 81.2 2.8 64.2 62 2.2 -1.5
Levelland  03:15 PM 81.4 80 1.4 61.7 61.8 -0.2 -1.3
Roaring Springs  03:15 PM 86.2 85.7 0.5 68.2 65.6 2.6 -1.1
Floydada  03:15 PM 84.5 86.3 -1.8 62.5 61.3 1.2 -1.2
Ralls  03:15 PM 86.2 84.2 2.1 61.8 59.3 2.6 -1.2
Brownfield  03:15 PM 84.2 81.8 2.4 63.8 63 0.8 -1.3
Muleshoe  03:10 PM 81.6 83.8 -2.2 62.8 60.7 2 -0.8
Morton  03:10 PM 82.7 83.4 -0.7 61.8 60.5 1.3 -1
O'Donnell  03:15 PM 85.2 80.6 4.6 60.3 60.3 -0 -1.5
Seagraves  03:15 PM 82.7 81.5 1.2 64.1 63.5 0.6 0
Amherst  03:15 PM 82.3 85.8 -3.5 60.7 60.5 0.1 -0.8
Plains  03:15 PM 81.4 81 0.4 62.7 61.4 1.3 -1.2
Lamesa  03:15 PM 84.9 80.1 4.8 64.1 64.6 -0.5 -1.5
Hart  03:15 PM 83 84.8 -1.7 62.4 59.5 2.9 -0.8
Friona  03:15 PM 83.8 86.6 -2.8 61.7 56.3 5.4 -1.1
Dimmitt  03:15 PM 81.7 86.1 -4.4 61.9 60 1.9 -0.9
Tulia  03:15 PM 82.3 85.5 -3.2 61.6 59.9 1.6 -0.7
Silverton  03:15 PM 84.2 85.4 -1.2 60.3 60.6 -0.4 -0.9
Post  03:15 PM 87 85.1 1.8 64.1 62.6 1.5 -1.3
Seminole  03:15 PM 83.1 80.9 2.2 62.5 61.8 0.7 -1.3
Gail  03:15 PM 87.3 83.2 4.1 65 63.7 1.3 -1.5
White River Lake  03:15 PM 85.1 84.6 0.5 63.3 60 3.3 -1.1
Graham  03:15 PM 83.8 81.7 2.1 63.9 62.2 1.8 -1.4
Sundown  03:15 PM 82 82 0.1 61.8 61.7 0.1 -1.3
Anton  03:15 PM 82.1 82.9 -0.8 63.7 63.2 0.5 -1.2
Fluvanna  03:15 PM 86.5 81.5 5 64.1 64.3 -0.2 -1.5
Spur  03:15 PM 86.1 87.8 -1.7 63.7 60.6 3.1 -1.1
Northwest Lubbock  03:15 PM 85.4 83.9 1.6 61.7 61.1 0.6 -1.3
Guthrie  03:15 PM 92.6 92.2 0.4 63.8 61.4 2.4 -1.1
Clarendon  03:15 PM 86.9 87.3 -0.5 62.4 61.6 0.9 -1
Paducah  03:15 PM 88 90 -2 65.5 62.8 2.7 -1.1
Snyder  03:15 PM 87.2 85.4 1.8 67.1 65.7 1.4 -1.1
Memphis  03:15 PM 88.9 88.7 0.2 64.9 64.2 0.7 -1
Jayton  03:15 PM 88.1 88.9 -0.7 64.8 62.9 2 -1.2
Pampa  03:15 PM 87.8 87.6 0.2 62.6 61.9 0.7 -1.3
Aspermont  03:15 PM 88.3 87.6 0.6 67.8 66.7 1.1 -1.2
Hereford  03:15 PM 81.7 86.5 -4.8 59.2 54.6 4.6 -1
Goodlett  03:15 PM 92 91.7 0.3 63.6 62.3 1.3 -1.1
McLean  03:15 PM 86.7 87.1 -0.4 62.6 62.4 0.2 -1.1
Denver City  03:15 PM 81.2 81.1 0.1 61.3 59.3 1.9 -1.3
Lake Alan Henry  03:15 PM 86.6 85.8 0.8 66.9 66.9 0 -1.3
Wolfforth  03:15 PM 83.6 82.3 1.2 63.8 61.9 2 -1.4
Andrews  03:15 PM 82.7 82.1 0.5 62.7 62.2 0.5 -1.4
Turkey  03:15 PM 88 87.3 0.7 66.7 64.7 2 -1.1
Childress  03:15 PM 91.5 91.8 -0.3 64.3 62.4 1.9 -1
Tatum  03:15 PM 82.8 81.5 1.2 61.1 59 2.1 -1.3
Northfield  03:15 PM 91.1 91.7 -0.6 63.8 63.4 0.4 -1.1
Dora  03:15 PM 83.2 83.5 -0.3 60.1 57.8 2.3 -1.1
Northwest San Angelo  03:15 PM 87 85.4 1.6 66.3 65.2 1.1 -0.9
Saint Lawrence  03:15 PM 85.6 79 6.5 65.9 65.9 0 -1.5
Haskell  03:15 PM 89.7 88.2 1.5 65.5 65.6 -0.1 -1.2
Wall  03:15 PM 87.2 85 2.3 69.8 69.5 0.3 -0.8
Seymour  03:15 PM 90.7 89.5 1.1 66.3 66.7 -0.3 -1.2
Knox City  03:15 PM 91.8 90.1 1.7 67.8 67.1 0.7 -1.2
Guadalupe Mtns Park  03:15 PM 79.6 73.4 6.2 58 56.3 1.8 -1.5
Caprock Canyons   03:15 PM 87.1 86.5 0.7 63.6 65.5 -1.9 -1.2
Odell  03:15 PM 92.9 91.7 1.2 67.2 63.8 3.4 -1.3
Coyanosa  03:15 PM 88.4 81.3 7.2 68.6 67.6 1 -2
Big Lake  03:15 PM 82 80.3 1.7 66.7 67.3 -0.6 -1.2
Junction  03:15 PM 87.2 84.2 3.1 68.1 68.3 -0.2 -0.7
Hobbs  03:15 PM 81.8 78.3 3.6 61.3 61.7 -0.5 -1.5
Canadian  03:15 PM 92.4 91.7 0.6 64.9 64 0.9 -1.4
Palo Duro Canyon State Park Rim  03:15 PM 87.3 89.5 -2.2 61.7 60.2 1.5 -0.9
Bootleg  03:15 PM 83.3 84.8 -1.4 60.7 58.1 2.6 -1.3
Sterling City  03:15 PM 85.7 81.8 3.9 66.6 68.5 -1.9 -1.3
Mertzon  03:15 PM 86.6 82.5 4.2 68.1 67.8 0.3 -1
Persimmon Gap  03:15 PM 84.6 78.1 6.5 68.3 69.4 -1 -1.2
Weinert  03:15 PM 88.9 87.3 1.5 67.9 66.9 1 -1.2
Claude 12 Southwest  03:15 PM 85.6 86.4 -0.8 62.5 60 2.5 -1.1
Amarillo 7 South Southeast  03:15 PM 86.8 88.9 -2.2 61.2 56.5 4.6 -1.1
Umbarger  03:15 PM 85.9 87.6 -1.6 62.2 58.2 4 -1
Lomax  03:15 PM 85.9 81 5 66.4 67.2 -0.8 -1.6
Amarillo 9 North Northeast  03:15 PM 88.6 91.3 -2.7 61.5 60.6 1 -1.1
Aiken 3 West Southwest  03:15 PM 84.1 85.1 -1 64.1 63.1 0.9 -1
Sweetwater  03:15 PM 83.3 82.4 0.8 70.2 69.4 0.8 -1.1
Dozier  03:15 PM 87.9 91.2 -3.3 67 66.9 0.1 -0.9
Amarillo 15 North Northwest  03:15 PM 90.1 92.2 -2.1 60.9 59.1 1.9 -1.1
Menard  03:15 PM 86.6 81.9 4.7 68.6 69.4 -0.8 -0.9
Tarzan  03:15 PM 84.3 81.6 2.7 66.7 66.3 0.4 -1.4
Goodnight  03:15 PM 89.2 88.8 0.4 64.2 64 0.1 -1
Boys Ranch   03:15 PM 90.3 91.9 -1.7 60.2 57.3 3 -1
Fort McKavett  03:15 PM 86.3 83.7 2.6 67.8 69.6 -1.8 -0.8
Fort Chadbourne  03:15 PM 86.2 82.8 3.3 70.4 69.7 0.7 -1.1
Palo Duro Canyon State Park Floor  03:15 PM 89.9 92 -2.1 63.8 61.1 2.7 -0.9
Fort Lancaster  03:15 PM 84.8 80.6 4.2 69.1 69.4 -0.3 -1.1
Dell City 1N  03:15 PM 87.3 84.4 2.9 62.9 60.9 2 -1.5
Clyde  03:15 PM 87.1 86.6 0.5 66.1 67 -0.8 -1.1
Snyder SSW  03:15 PM 86.3 84.7 1.6 68.7 65.4 3.3 -1.2
Panhandle  03:15 PM 88.2 87.6 0.6 61.7 59.8 1.9 -1.3
Vigo Park  03:15 PM 85.7 87.1 -1.4 64.3 62 2.3 -0.8
Welch  03:15 PM 84.8 82.1 2.8 65.6 65.5 0.1 -1.5
Throckmorton  03:15 PM 92.1 90.7 1.4 66.9 66.9 -0 -1.1
Sierra Blanca  03:15 PM 85.4 81.5 3.9 61.7 59.4 2.2 -1.1
Fort Lewis CO  03:15 PM 82.7 84.3 -1.6 38.1 37.2 1 -0.9
New Home  03:15 PM 85.9 81.4 4.4 65.5 63.9 1.5 -1.5
McCamey  03:15 PM 86.8 82.1 4.8 67.7 67.2 0.5 -1.4
Stamford  03:15 PM 90.4 87.7 2.6 66.8 67 -0.3 -1.2
Crowell  03:15 PM 92 91.3 0.8 69.3 66 3.3 -1.1
Stinnett  03:15 PM 89.5 90.4 -0.9 61.5 57.7 3.8 -1.3
Colorado City  03:15 PM 87.1 85.3 1.9 68 66.5 1.5 -1.3
Happy  03:15 PM 84.7 87 -2.3 63.9 61.5 2.3 -0.9
Endee  03:15 PM 88.3 89.3 -1 61.2 56.3 5 -1.5
JA Ranch  03:15 PM 89.2 89.9 -0.6 64.3 64.8 -0.5 -0.9
Adrian  03:15 PM 84.7 87.2 -2.6 61.4 56.8 4.6 -1.3
Lesley  03:15 PM 88.3 88.3 0 67.6 64.5 3.1 -1.1
Earth  03:15 PM 82.8 86.6 -3.8 63.1 61.3 1.8 -0.9
Van Horn  03:15 PM 86.4 82.6 3.8 62.8 62.9 -0.1 -1.2
Rotan  03:15 PM 86.7 85.7 1 67.9 65.6 2.3 -1.1
Fritch  03:15 PM 89.8 92.2 -2.4 60.1 57.1 3 -1.2
Estelline  03:15 PM 92.7 92.5 0.2 66.4 65.8 0.6 -1.1
Crane  03:15 PM 87 79.9 7.1 66.2 65.7 0.5 -1.7
Olton  03:15 PM 81.8 84.8 -3 61.7 60.6 1.1 -0.9

West Texas Mesonet Home   Site Map/Menu  NWS Lubbock Soil Data  Daily Summary Page  24hr Precip  72hr Precip  Google Plot